Morgan, Utah
Current Conditions -  °F | °C
As of 4:58 AM on Thursday 27 Nov 2014 (Local Time) from KHIF Reporting Station
Clear Clear  
Wind Chill: 37°   Ceiling: Unl
Heat Index: 42°   Visibility: 10mi
Dew Point: 25°   Wind: 9mph
Humidity: 50%   Direction: 130°SE
Pressure: 30.3"   Gusts: NA
Location:  41.04°N, 111.68°W
Report Text: KHIF 271158Z AUTO 13008KT 10SM CLR 06/M04 A3030 RMK AO2 SLP246 T00571040 10060 20043 58008
Loading
Personal Weather Stations






























Interactive Weather Map New forecast layout! Learn more

10-Day Weather Forecast

Advertisements
Track Severe Weather on mobile